KBFD/BFD METAR and TAF weather

Enter ICAO airport designator
Station Type Date Time Source
KBFD METAR 2021/09/20 04:53 UTC NOAA

KBFD 200453Z AUTO 00000KT 10SM CLR 09/07 A3026 RMK AO2 SLP242 T00940072 402280083


Station Type Date Time Source
KBFD Decoded METAR 2021/09/20 04:53 UTC NOAA

BRADFORD REGIONAL AIRPORT, PA, United States (KBFD) 41-48N 078-38W 647M
Sep 20, 2021 - 12:53 AM EDT / 2021.09.20 0453 UTC
Wind: Calm:0
Visibility: 10 mile(s):0
Sky conditions: clear
Temperature: 48.9 F (9.4 C)
Dew Point: 45.0 F (7.2 C)
Relative Humidity: 86%
Pressure (altimeter): 30.26 in. Hg (1024 hPa)
ob: KBFD 200453Z AUTO 00000KT 10SM CLR 09/07 A3026 RMK AO2 SLP242 T00940072 402280083
cycle: 5

Station Type Date Time Source
KBFD TAF 2021/09/20 03:16 UTC NOAA

TAF
AMD KBFD 200314Z 2003/2024 12003KT P6SM SKC
FM200800 13003KT 1/2SM FG OVC005
FM201200 14006KT 5SM BR BKN009
FM201400 15008G15KT P6SM SKC

Example: see airport list